createdAt,value
2018-07-23T00:01:29.117Z,98428.63
2018-07-23T00:03:41.570Z,98430.62
2018-07-23T00:05:53.940Z,98437.27
2018-07-23T00:08:06.418Z,98438.58
2018-07-23T00:10:18.825Z,98436.44
2018-07-23T00:12:31.178Z,98439.22
2018-07-23T00:14:43.657Z,98437.53
2018-07-23T00:16:56.048Z,98438.85
2018-07-23T00:19:08.394Z,98442.19
2018-07-23T00:21:20.934Z,98433.95
2018-07-23T00:23:33.281Z,98435.45
2018-07-23T00:25:45.676Z,98433.53
2018-07-23T00:27:58.189Z,98427.10
2018-07-23T00:30:10.598Z,98432.16
2018-07-23T00:32:22.969Z,98430.84
2018-07-23T00:34:35.359Z,98431.66
2018-07-23T00:36:47.705Z,98425.84
2018-07-23T00:39:00.024Z,98423.91
2018-07-23T00:41:12.451Z,98430.05
2018-07-23T00:43:24.814Z,98424.39
2018-07-23T00:45:37.212Z,98421.69
2018-07-23T00:47:49.534Z,98421.54
2018-07-23T00:50:01.994Z,98424.39
2018-07-23T00:52:14.368Z,98419.84
2018-07-23T00:54:26.732Z,98415.25
2018-07-23T00:56:39.140Z,98419.07
2018-07-23T00:58:51.634Z,98419.41
2018-07-23T01:01:03.940Z,98418.22
2018-07-23T01:03:16.357Z,98417.33
2018-07-23T01:05:28.769Z,98414.13
2018-07-23T01:07:41.200Z,98412.14
2018-07-23T01:09:53.913Z,98413.73
2018-07-23T01:12:06.251Z,98422.94
2018-07-23T01:14:18.677Z,98421.96
2018-07-23T01:16:31.099Z,98422.94
2018-07-23T01:18:43.528Z,98425.84
2018-07-23T01:20:56.092Z,98423.55
2018-07-23T01:23:09.323Z,98423.70
2018-07-23T01:25:21.657Z,98425.50
2018-07-23T01:27:33.991Z,98430.77
2018-07-23T01:29:46.381Z,98425.50
2018-07-23T01:31:58.768Z,98425.20
2018-07-23T01:34:11.189Z,98422.78
2018-07-23T01:36:23.528Z,98423.61
2018-07-23T01:38:35.915Z,98421.36
2018-07-23T01:40:48.366Z,98419.81
2018-07-23T01:43:00.895Z,98421.96
2018-07-23T01:45:13.371Z,98425.56
2018-07-23T01:47:25.861Z,98424.86
2018-07-23T01:49:38.251Z,98426.45
2018-07-23T01:51:50.665Z,98423.59
2018-07-23T01:54:03.074Z,98418.64
2018-07-23T01:56:15.421Z,98423.04
2018-07-23T01:58:28.046Z,98431.79
2018-07-23T02:00:40.410Z,98429.28
2018-07-23T02:02:52.881Z,98431.23
2018-07-23T02:05:05.368Z,98434.12
2018-07-23T02:07:17.872Z,98428.77
2018-07-23T02:09:30.303Z,98431.84
2018-07-23T02:11:42.855Z,98434.02
2018-07-23T02:13:55.193Z,98434.36
2018-07-23T02:16:07.566Z,98430.27
2018-07-23T02:18:19.913Z,98433.48
2018-07-23T02:20:32.471Z,98427.62
2018-07-23T02:22:44.834Z,98434.88
2018-07-23T02:24:57.210Z,98437.50
2018-07-23T02:27:09.615Z,98432.13
2018-07-23T02:29:21.965Z,98438.70
2018-07-23T02:31:34.309Z,98436.19
2018-07-23T02:33:46.707Z,98439.19
2018-07-23T02:35:59.170Z,98446.59
2018-07-23T02:38:11.614Z,98444.79
2018-07-23T02:40:24.065Z,98441.62
2018-07-23T02:42:36.532Z,98443.91
2018-07-23T02:44:48.950Z,98438.44
2018-07-23T02:47:01.475Z,98447.49
2018-07-23T02:49:13.910Z,98446.93
2018-07-23T02:51:26.224Z,98449.98
2018-07-23T02:53:38.650Z,98448.44
2018-07-23T02:55:51.017Z,98451.45
2018-07-23T02:58:03.381Z,98449.24
2018-07-23T03:00:15.832Z,98447.36
2018-07-23T03:02:28.179Z,98449.43
2018-07-23T03:04:40.562Z,98451.61
2018-07-23T03:06:52.931Z,98448.77
2018-07-23T03:09:06.516Z,98448.91
2018-07-23T03:11:18.921Z,98451.39
2018-07-23T03:13:31.333Z,98454.39
2018-07-23T03:15:43.757Z,98454.99
2018-07-23T03:17:56.202Z,98454.91
2018-07-23T03:20:08.605Z,98456.23
2018-07-23T03:22:20.945Z,98460.44
2018-07-23T03:24:33.302Z,98453.52
2018-07-23T03:26:45.805Z,98454.20
2018-07-23T03:28:58.238Z,98454.91
2018-07-23T03:31:10.600Z,98456.72
2018-07-23T03:33:22.986Z,98464.12
2018-07-23T03:35:35.337Z,98461.23
2018-07-23T03:37:47.813Z,98463.59
2018-07-23T03:40:00.213Z,98472.64
2018-07-23T03:42:12.554Z,98468.85
2018-07-23T03:44:24.926Z,98471.97
2018-07-23T03:46:37.390Z,98470.50
2018-07-23T03:48:49.878Z,98465.73
2018-07-23T03:51:02.214Z,98473.47
2018-07-23T03:53:14.619Z,98482.08
2018-07-23T03:55:26.961Z,98477.37
2018-07-23T03:57:39.341Z,98480.23
2018-07-23T03:59:51.763Z,98479.94
2018-07-23T04:02:04.278Z,98485.57
2018-07-23T04:04:17.214Z,98488.53
2018-07-23T04:06:29.670Z,98490.41
2018-07-23T04:08:42.111Z,98494.62
2018-07-23T04:10:54.636Z,98489.09
2018-07-23T04:13:06.988Z,98496.01
2018-07-23T04:15:19.366Z,98498.48
2018-07-23T04:17:31.863Z,98495.38
2018-07-23T04:19:44.317Z,98502.17
2018-07-23T04:21:56.691Z,98496.80
2018-07-23T04:24:09.200Z,98500.47
2018-07-23T04:26:21.541Z,98501.30
2018-07-23T04:28:33.952Z,98502.80
2018-07-23T04:30:46.462Z,98506.63
2018-07-23T04:32:58.863Z,98505.32
2018-07-23T04:35:11.409Z,98507.53
2018-07-23T04:37:23.781Z,98517.59
2018-07-23T04:39:36.186Z,98514.14
2018-07-23T04:41:48.701Z,98512.83
2018-07-23T04:44:01.070Z,98516.70
2018-07-23T04:46:13.530Z,98518.13
2018-07-23T04:48:25.954Z,98521.20
2018-07-23T04:50:38.455Z,98510.98
2018-07-23T04:52:50.711Z,98512.64
2018-07-23T04:55:03.170Z,98514.67
2018-07-23T04:57:15.511Z,98512.64
2018-07-23T04:59:27.865Z,98519.72
2018-07-23T05:01:40.345Z,98521.23
2018-07-23T05:03:52.713Z,98529.56
2018-07-23T05:06:05.324Z,98526.92
2018-07-23T05:08:18.047Z,98537.93
2018-07-23T05:10:30.445Z,98536.19
2018-07-23T05:12:42.845Z,98536.56
2018-07-23T05:14:55.213Z,98541.00
2018-07-23T05:17:07.640Z,98545.41
2018-07-23T05:19:20.013Z,98549.17
2018-07-23T05:21:32.440Z,98548.13
2018-07-23T05:23:45.070Z,98552.07
2018-07-23T05:25:57.457Z,98547.58
2018-07-23T05:28:09.854Z,98545.08
2018-07-23T05:30:22.466Z,98547.36
2018-07-23T05:32:34.886Z,98553.09
2018-07-23T05:34:47.277Z,98546.69
2018-07-23T05:36:59.928Z,98550.25
2018-07-23T05:39:12.428Z,98551.20
2018-07-23T05:41:24.873Z,98554.38
2018-07-23T05:43:37.453Z,98556.80
2018-07-23T05:45:49.853Z,98559.77
2018-07-23T05:48:02.214Z,98559.26
2018-07-23T05:50:14.590Z,98561.22
2018-07-23T05:52:26.942Z,98556.23
2018-07-23T05:54:39.297Z,98560.39
2018-07-23T05:56:51.789Z,98563.53
2018-07-23T05:59:04.340Z,98562.67
2018-07-23T06:01:16.914Z,98562.95
2018-07-23T06:03:29.330Z,98562.02
2018-07-23T06:05:41.827Z,98562.23
2018-07-23T06:07:54.254Z,98559.66
2018-07-23T06:10:06.685Z,98558.15
2018-07-23T06:12:19.063Z,98566.05
2018-07-23T06:14:31.440Z,98568.20
2018-07-23T06:16:43.776Z,98565.23
2018-07-23T06:18:56.186Z,98563.27
2018-07-23T06:21:08.555Z,98562.99
2018-07-23T06:23:20.918Z,98571.23
2018-07-23T06:25:33.290Z,98570.63
2018-07-23T06:27:45.660Z,98572.06
2018-07-23T06:29:58.144Z,98573.87
2018-07-23T06:32:10.543Z,98576.09
2018-07-23T06:34:23.181Z,98570.34
2018-07-23T06:36:35.575Z,98570.89
2018-07-23T06:38:48.147Z,98571.78
2018-07-23T06:41:00.526Z,98575.19
2018-07-23T06:43:13.224Z,98573.59
2018-07-23T06:45:26.414Z,98574.97
2018-07-23T06:47:38.933Z,98581.22
2018-07-23T06:49:51.295Z,98573.71
2018-07-23T06:52:03.695Z,98577.99
2018-07-23T06:54:16.118Z,98580.41
2018-07-23T06:56:28.609Z,98586.44
2018-07-23T06:58:40.997Z,98584.53
2018-07-23T07:00:53.436Z,98581.28
2018-07-23T07:03:06.469Z,98586.11
2018-07-23T07:05:18.872Z,98587.30
2018-07-23T07:07:31.287Z,98587.59
2018-07-23T07:09:43.710Z,98592.33
2018-07-23T07:11:56.081Z,98592.64
2018-07-23T07:14:08.788Z,98591.16
2018-07-23T07:16:21.431Z,98583.00
2018-07-23T07:18:33.848Z,98591.34
2018-07-23T07:20:46.242Z,98592.41
2018-07-23T07:22:58.662Z,98592.62
2018-07-23T07:25:11.046Z,98597.41
2018-07-23T07:27:23.563Z,98593.24
2018-07-23T07:29:35.967Z,98595.05
2018-07-23T07:31:48.386Z,98593.44
2018-07-23T07:34:01.354Z,98599.27
2018-07-23T07:36:13.783Z,98600.13
2018-07-23T07:38:26.239Z,98601.98
2018-07-23T07:40:39.083Z,98602.06
2018-07-23T07:42:52.247Z,98596.81
2018-07-23T07:45:05.400Z,98599.86
2018-07-23T07:47:17.802Z,98601.18
2018-07-23T07:49:30.243Z,98596.23
2018-07-23T07:51:42.610Z,98597.00
2018-07-23T07:53:55.064Z,98601.73
2018-07-23T07:56:08.023Z,98605.10
2018-07-23T07:58:20.571Z,98606.16
2018-07-23T08:00:32.927Z,98600.64
2018-07-23T08:02:46.347Z,98599.72
2018-07-23T08:04:59.638Z,98597.83
2018-07-23T08:07:12.153Z,98598.84
2018-07-23T08:09:24.506Z,98596.52
2018-07-23T08:11:37.408Z,98602.48
2018-07-23T08:13:49.966Z,98592.07
2018-07-23T08:16:02.373Z,98594.59
2018-07-23T08:18:14.765Z,98601.94
2018-07-23T08:20:27.500Z,98599.19
2018-07-23T08:22:39.829Z,98605.01
2018-07-23T08:24:52.237Z,98603.84
2018-07-23T08:27:04.966Z,98601.36
2018-07-23T08:29:17.377Z,98605.83
2018-07-23T08:31:29.834Z,98609.45
2018-07-23T08:33:42.282Z,98606.17
2018-07-23T08:35:55.753Z,98610.99
2018-07-23T08:38:08.154Z,98610.66
2018-07-23T08:40:20.643Z,98605.14
2018-07-23T08:42:33.993Z,98603.28
2018-07-23T08:44:46.506Z,98605.52
2018-07-23T08:46:58.959Z,98606.14
2018-07-23T08:49:11.316Z,98613.30
2018-07-23T08:51:23.778Z,98607.83
2018-07-23T08:53:36.101Z,98608.70
2018-07-23T08:55:48.468Z,98604.74
2018-07-23T08:58:01.559Z,98603.88
2018-07-23T09:00:13.937Z,98601.80
2018-07-23T09:02:26.424Z,98601.20
2018-07-23T09:04:38.795Z,98606.11
2018-07-23T09:06:51.335Z,98598.44
2018-07-23T09:09:05.363Z,98600.07
2018-07-23T09:11:17.898Z,98601.63
2018-07-23T09:13:30.290Z,98610.22
2018-07-23T09:15:42.634Z,98603.25
2018-07-23T09:17:55.124Z,98602.74
2018-07-23T09:20:07.540Z,98603.86
2018-07-23T09:22:19.946Z,98596.64
2018-07-23T09:24:32.394Z,98602.18
2018-07-23T09:26:44.854Z,98601.31
2018-07-23T09:28:57.232Z,98590.86
2018-07-23T09:31:09.800Z,98598.58
2018-07-23T09:33:23.464Z,98601.84
2018-07-23T09:35:36.012Z,98597.70
2018-07-23T09:37:48.430Z,98603.84
2018-07-23T09:40:00.849Z,98599.98
2018-07-23T09:42:13.210Z,98600.45
2018-07-23T09:44:25.689Z,98595.90
2018-07-23T09:46:38.134Z,98595.62
2018-07-23T09:48:51.294Z,98597.84
2018-07-23T09:51:03.772Z,98591.98
2018-07-23T09:53:16.125Z,98593.59
2018-07-23T09:55:29.183Z,98591.17
2018-07-23T09:57:41.514Z,98590.02
2018-07-23T09:59:53.982Z,98586.14
2018-07-23T10:02:06.437Z,98593.94
2018-07-23T10:04:18.889Z,98589.36
2018-07-23T10:06:31.229Z,98592.98
2018-07-23T10:08:43.754Z,98592.59
2018-07-23T10:10:56.293Z,98597.11
2018-07-23T10:13:08.611Z,98589.08
2018-07-23T10:15:20.995Z,98586.63
2018-07-23T10:17:33.340Z,98578.37
2018-07-23T10:19:45.882Z,98583.97
2018-07-23T10:21:58.373Z,98578.16
2018-07-23T10:24:10.815Z,98586.99
2018-07-23T10:26:23.177Z,98583.37
2018-07-23T10:28:35.544Z,98584.71
2018-07-23T10:30:47.929Z,98580.62
2018-07-23T10:33:00.390Z,98581.39
2018-07-23T10:35:12.805Z,98583.45
2018-07-23T10:37:25.317Z,98579.11
2018-07-23T10:39:37.805Z,98580.66
2018-07-23T10:41:50.180Z,98577.00
2018-07-23T10:44:02.629Z,98576.18
2018-07-23T10:46:15.080Z,98574.41
2018-07-23T10:48:27.498Z,98572.05
2018-07-23T10:50:40.024Z,98570.45
2018-07-23T10:52:52.441Z,98569.16
2018-07-23T10:55:04.851Z,98562.86
2018-07-23T10:57:17.328Z,98563.62
2018-07-23T10:59:29.711Z,98564.23
2018-07-23T11:01:42.219Z,98570.22
2018-07-23T11:03:54.735Z,98566.36
2018-07-23T11:06:07.137Z,98572.41
2018-07-23T11:08:19.481Z,98565.33
2018-07-23T11:10:31.937Z,98572.59
2018-07-23T11:12:44.378Z,98566.30
2018-07-23T11:14:56.869Z,98575.66
2018-07-23T11:17:09.249Z,98566.09
2018-07-23T11:19:21.812Z,98562.90
2018-07-23T11:21:34.142Z,98564.84
2018-07-23T11:23:46.486Z,98568.13
2018-07-23T11:25:58.952Z,98569.46
2018-07-23T11:28:11.321Z,98561.44
2018-07-23T11:30:23.718Z,98561.53
2018-07-23T11:32:36.283Z,98560.83
2018-07-23T11:34:48.730Z,98557.81
2018-07-23T11:37:01.106Z,98552.17
2018-07-23T11:39:13.527Z,98550.55
2018-07-23T11:41:25.920Z,98544.30
2018-07-23T11:43:38.397Z,98551.41
2018-07-23T11:45:50.836Z,98546.44
2018-07-23T11:48:03.212Z,98543.30
2018-07-23T11:50:15.603Z,98547.61
2018-07-23T11:52:27.965Z,98547.64
2018-07-23T11:54:40.475Z,98539.08
2018-07-23T11:56:52.862Z,98545.53
2018-07-23T11:59:05.330Z,98547.69
2018-07-23T12:01:17.760Z,98542.56
2018-07-23T12:03:30.197Z,98533.21
2018-07-23T12:05:42.618Z,98534.00
2018-07-23T12:07:55.099Z,98532.56
2018-07-23T12:10:07.474Z,98522.78
2018-07-23T12:12:19.879Z,98530.08
2018-07-23T12:14:32.469Z,98531.75
2018-07-23T12:16:44.894Z,98530.36
2018-07-23T12:18:57.322Z,98531.64
2018-07-23T12:21:09.744Z,98538.63
2018-07-23T12:23:22.116Z,98530.30
2018-07-23T12:25:34.579Z,98524.63
2018-07-23T12:27:46.933Z,98527.69
2018-07-23T12:29:59.311Z,98527.05
2018-07-23T12:32:11.781Z,98525.71
2018-07-23T12:34:24.293Z,98526.78
2018-07-23T12:36:36.711Z,98522.86
2018-07-23T12:38:49.164Z,98522.86
2018-07-23T12:41:01.475Z,98517.94
2018-07-23T12:43:13.974Z,98527.11
2018-07-23T12:45:26.486Z,98518.39
2018-07-23T12:47:38.948Z,98515.98
2018-07-23T12:49:51.326Z,98525.65
2018-07-23T12:52:03.792Z,98521.25
2018-07-23T12:54:16.254Z,98517.33
2018-07-23T12:56:28.671Z,98518.23
2018-07-23T12:58:41.210Z,98517.19
2018-07-23T13:00:53.720Z,98516.20
2018-07-23T13:03:06.146Z,98519.39
2018-07-23T13:05:18.549Z,98508.23
2018-07-23T13:07:31.081Z,98517.67
2018-07-23T13:09:43.637Z,98512.33
2018-07-23T13:11:56.072Z,98511.12
2018-07-23T13:14:08.518Z,98507.80
2018-07-23T13:16:21.062Z,98508.71
2018-07-23T13:18:33.510Z,98509.35
2018-07-23T13:20:45.986Z,98510.00
2018-07-23T13:22:58.355Z,98511.67
2018-07-23T13:25:10.832Z,98504.39
2018-07-23T13:27:23.301Z,98510.20
2018-07-23T13:29:35.674Z,98507.43
2018-07-23T13:31:48.015Z,98498.41
2018-07-23T13:34:00.553Z,98502.94
2018-07-23T13:36:12.902Z,98506.43
2018-07-23T13:38:25.463Z,98497.92
2018-07-23T13:40:37.794Z,98498.04
2018-07-23T13:42:50.248Z,98500.30
2018-07-23T13:45:02.877Z,98496.38
2018-07-23T13:47:15.296Z,98498.53
2018-07-23T13:49:27.667Z,98499.08
2018-07-23T13:51:40.133Z,98495.20
2018-07-23T13:53:52.480Z,98484.33
2018-07-23T13:56:05.004Z,98484.39
2018-07-23T13:58:17.425Z,98486.90
2018-07-23T14:00:29.845Z,98484.84
2018-07-23T14:02:42.243Z,98484.93
2018-07-23T14:04:54.706Z,98485.11
2018-07-23T14:07:07.289Z,98482.95
2018-07-23T14:09:19.721Z,98480.34
2018-07-23T14:11:32.167Z,98479.23
2018-07-23T14:13:44.510Z,98475.46
2018-07-23T14:15:56.986Z,98480.92
2018-07-23T14:18:09.398Z,98468.99
2018-07-23T14:20:21.854Z,98470.95
2018-07-23T14:22:34.285Z,98460.89
2018-07-23T14:24:46.662Z,98459.97
2018-07-23T14:26:59.115Z,98456.25
2018-07-23T14:29:11.489Z,98454.20
2018-07-23T14:31:23.873Z,98456.16
2018-07-23T14:33:36.409Z,98456.86
2018-07-23T14:35:48.829Z,98452.72
2018-07-23T14:38:01.301Z,98455.55
2018-07-23T14:40:13.730Z,98458.32
2018-07-23T14:42:26.118Z,98457.45
2018-07-23T14:44:38.506Z,98455.38
2018-07-23T14:46:50.931Z,98454.27
2018-07-23T14:49:03.412Z,98457.42
2018-07-23T14:51:15.909Z,98458.11
2018-07-23T14:53:28.457Z,98452.13
2018-07-23T14:55:40.842Z,98450.98
2018-07-23T14:57:53.337Z,98450.67
2018-07-23T15:00:05.864Z,98449.46
2018-07-23T15:02:18.274Z,98447.06
2018-07-23T15:04:30.709Z,98444.17
2018-07-23T15:06:43.194Z,98450.46
2018-07-23T15:08:55.557Z,98442.08
2018-07-23T15:11:08.020Z,98445.42
2018-07-23T15:13:20.572Z,98444.27
2018-07-23T15:15:33.033Z,98444.63
2018-07-23T15:17:45.951Z,98445.53
2018-07-23T15:19:58.474Z,98446.81
2018-07-23T15:22:10.872Z,98437.03
2018-07-23T15:24:23.700Z,98438.77
2018-07-23T15:26:36.375Z,98443.50
2018-07-23T15:28:48.794Z,98440.13
2018-07-23T15:31:01.408Z,98443.59
2018-07-23T15:33:13.871Z,98445.95
2018-07-23T15:35:26.294Z,98444.63
2018-07-23T15:37:38.685Z,98445.11
2018-07-23T15:39:51.332Z,98444.38
2018-07-23T15:42:03.889Z,98447.73
2018-07-23T15:44:16.316Z,98446.81
2018-07-23T15:46:28.642Z,98447.43
2018-07-23T15:48:41.062Z,98441.95
2018-07-23T15:50:53.670Z,98436.67
2018-07-23T15:53:06.079Z,98445.40
2018-07-23T15:55:18.466Z,98438.21
2018-07-23T15:57:30.856Z,98443.12
2018-07-23T15:59:43.489Z,98438.47
2018-07-23T16:01:55.903Z,98433.64
2018-07-23T16:04:08.259Z,98434.24
2018-07-23T16:06:20.664Z,98435.66
2018-07-23T16:08:33.032Z,98430.06
2018-07-23T16:10:45.631Z,98431.73
2018-07-23T16:12:58.009Z,98427.55
2018-07-23T16:15:10.411Z,98433.10
2018-07-23T16:17:22.779Z,98435.56
2018-07-23T16:19:35.225Z,98432.12
2018-07-23T16:21:47.671Z,98431.30
2018-07-23T16:24:00.138Z,98434.14
2018-07-23T16:26:12.567Z,98420.58
2018-07-23T16:28:25.438Z,98422.22
2018-07-23T16:30:37.838Z,98425.19
2018-07-23T16:32:50.143Z,98424.42
2018-07-23T16:35:02.758Z,98422.42
2018-07-23T16:37:15.130Z,98424.94
2018-07-23T16:39:27.557Z,98426.14
2018-07-23T16:41:40.000Z,98413.83
2018-07-23T16:43:52.578Z,98411.67
2018-07-23T16:46:04.999Z,98425.02
2018-07-23T16:48:17.405Z,98422.34
2018-07-23T16:50:29.817Z,98420.29
2018-07-23T16:52:42.240Z,98414.34
2018-07-23T16:54:54.647Z,98417.86
2018-07-23T16:57:07.134Z,98412.98
2018-07-23T16:59:19.818Z,98415.20
2018-07-23T17:01:32.334Z,98418.46
2018-07-23T17:03:44.763Z,98416.17
2018-07-23T17:05:57.173Z,98412.32
2018-07-23T17:08:09.710Z,98418.14
2018-07-23T17:10:22.027Z,98417.97
2018-07-23T17:12:34.387Z,98427.47
2018-07-23T17:14:46.898Z,98425.45
2018-07-23T17:16:59.240Z,98424.64
2018-07-23T17:19:11.609Z,98429.15
2018-07-23T17:21:23.961Z,98427.00
2018-07-23T17:23:36.480Z,98429.52
2018-07-23T17:25:49.192Z,98424.64
2018-07-23T17:28:01.607Z,98425.25
2018-07-23T17:30:14.122Z,98422.92
2018-07-23T17:32:26.745Z,98427.75
2018-07-23T17:34:39.114Z,98426.93
2018-07-23T17:36:51.546Z,98427.89
2018-07-23T17:39:07.546Z,98434.45
2018-07-23T17:41:20.046Z,98433.11
2018-07-23T17:43:32.527Z,98430.92
2018-07-23T17:45:44.906Z,98430.69
2018-07-23T17:47:57.498Z,98435.19
2018-07-23T17:50:09.898Z,98428.97
2018-07-23T17:52:22.318Z,98429.91
2018-07-23T17:54:34.822Z,98428.81
2018-07-23T17:56:47.292Z,98433.10
2018-07-23T17:58:59.712Z,98438.32
2018-07-23T18:01:12.194Z,98439.00
2018-07-23T18:03:24.566Z,98439.20
2018-07-23T18:05:37.006Z,98436.70
2018-07-23T18:07:49.372Z,98437.72
2018-07-23T18:10:01.937Z,98441.41
2018-07-23T18:12:14.371Z,98439.79
2018-07-23T18:14:26.798Z,98441.15
2018-07-23T18:16:39.349Z,98448.15
2018-07-23T18:18:51.723Z,98451.66
2018-07-23T18:21:04.218Z,98442.59
2018-07-23T18:23:16.758Z,98452.95
2018-07-23T18:25:29.383Z,98454.84
2018-07-23T18:27:41.803Z,98453.05
2018-07-23T18:29:54.119Z,98451.58
2018-07-23T18:32:06.657Z,98450.80
2018-07-23T18:34:19.069Z,98452.33
2018-07-23T18:36:31.464Z,98453.52
2018-07-23T18:38:44.183Z,98455.20
2018-07-23T18:40:56.627Z,98460.58
2018-07-23T18:43:09.018Z,98458.64
2018-07-23T18:45:21.441Z,98460.73
2018-07-23T18:47:33.954Z,98469.53
2018-07-23T18:49:55.628Z,98464.57
2018-07-23T18:52:08.178Z,98470.07
2018-07-23T18:54:21.670Z,98467.01
2018-07-23T18:56:44.240Z,98471.88
2018-07-23T18:58:56.643Z,98470.09
2018-07-23T19:01:09.170Z,98477.80
2018-07-23T19:03:21.635Z,98481.83
2018-07-23T19:05:34.113Z,98482.86
2018-07-23T19:07:46.480Z,98480.59
2018-07-23T19:09:58.884Z,98485.27
2018-07-23T19:12:11.812Z,98488.27
2018-07-23T19:14:26.257Z,98491.73
2018-07-23T19:16:39.850Z,98500.72
2018-07-23T19:18:52.261Z,98500.75
2018-07-23T19:21:04.735Z,98503.91
2018-07-23T19:23:17.157Z,98505.73
2018-07-23T19:25:29.563Z,98504.92
2018-07-23T19:27:41.949Z,98503.91
2018-07-23T19:29:54.353Z,98511.51
2018-07-23T19:32:06.875Z,98508.21
2018-07-23T19:34:19.451Z,98505.88
2018-07-23T19:36:31.903Z,98515.81
2018-07-23T19:38:44.289Z,98511.84
2018-07-23T19:40:56.732Z,98513.13
2018-07-23T19:43:09.093Z,98512.47
2018-07-23T19:45:21.476Z,98515.43
2018-07-23T19:47:33.868Z,98527.16
2018-07-23T19:49:46.149Z,98529.31
2018-07-23T19:51:58.546Z,98526.25
2018-07-23T19:54:11.046Z,98528.90
2018-07-23T19:56:23.514Z,98524.41
2018-07-23T19:58:35.935Z,98528.17
2018-07-23T20:00:48.355Z,98531.59
2018-07-23T20:03:00.758Z,98528.39
2018-07-23T20:05:13.275Z,98529.19
2018-07-23T20:07:25.612Z,98531.31
2018-07-23T20:09:38.218Z,98525.47
2018-07-23T20:11:50.626Z,98527.83
2018-07-23T20:14:03.051Z,98522.80
2018-07-23T20:16:15.495Z,98525.72
2018-07-23T20:18:27.906Z,98528.97
2018-07-23T20:20:40.396Z,98528.15
2018-07-23T20:22:52.842Z,98531.29
2018-07-23T20:25:05.277Z,98526.33
2018-07-23T20:27:17.654Z,98528.06
2018-07-23T20:29:29.989Z,98530.23
2018-07-23T20:31:42.358Z,98530.52
2018-07-23T20:33:54.836Z,98522.94
2018-07-23T20:36:07.429Z,98527.02
2018-07-23T20:38:20.003Z,98520.16
2018-07-23T20:40:32.427Z,98524.55
2018-07-23T20:42:44.757Z,98519.63
2018-07-23T20:44:57.082Z,98515.77
2018-07-23T20:47:09.446Z,98513.59
2018-07-23T20:49:21.775Z,98523.45
2018-07-23T20:51:34.203Z,98512.20
2018-07-23T20:53:46.500Z,98515.17
2018-07-23T20:55:58.914Z,98512.99
2018-07-23T20:58:11.482Z,98512.83
2018-07-23T21:00:24.055Z,98515.36
2018-07-23T21:02:36.436Z,98509.41
2018-07-23T21:04:48.931Z,98512.39
2018-07-23T21:07:01.297Z,98511.89
2018-07-23T21:09:13.676Z,98509.61
2018-07-23T21:11:26.089Z,98511.47
2018-07-23T21:13:38.493Z,98515.47
2018-07-23T21:15:50.885Z,98517.45
2018-07-23T21:18:03.361Z,98525.23
2018-07-23T21:20:15.851Z,98513.19
2018-07-23T21:22:28.446Z,98515.17
2018-07-23T21:24:40.800Z,98514.77
2018-07-23T21:26:53.171Z,98515.03
2018-07-23T21:29:05.701Z,98509.34
2018-07-23T21:31:18.029Z,98514.66
2018-07-23T21:33:30.394Z,98519.58
2018-07-23T21:35:42.769Z,98521.59
2018-07-23T21:37:55.153Z,98510.42
2018-07-23T21:40:08.598Z,98516.03
2018-07-23T21:42:21.110Z,98513.68
2018-07-23T21:44:33.645Z,98513.84
2018-07-23T21:46:46.095Z,98521.76
2018-07-23T21:48:58.470Z,98522.09
2018-07-23T21:51:10.822Z,98523.00
2018-07-23T21:53:23.225Z,98520.48
2018-07-23T21:55:35.610Z,98521.76
2018-07-23T21:57:48.018Z,98516.61
2018-07-23T22:00:00.390Z,98517.80
2018-07-23T22:02:12.802Z,98519.61
2018-07-23T22:04:25.278Z,98517.44
2018-07-23T22:06:37.666Z,98518.22
2018-07-23T22:08:50.787Z,98518.22
2018-07-23T22:11:03.239Z,98514.42
2018-07-23T22:13:15.609Z,98512.61
2018-07-23T22:15:28.044Z,98515.20
2018-07-23T22:17:40.433Z,98513.50
2018-07-23T22:19:52.808Z,98511.39
2018-07-23T22:22:05.267Z,98514.91
2018-07-23T22:24:17.603Z,98514.03
2018-07-23T22:26:29.976Z,98515.14
2018-07-23T22:28:42.392Z,98502.94
2018-07-23T22:33:42.798Z,98508.16
2018-07-23T22:35:55.046Z,98508.78
2018-07-23T22:38:07.352Z,98506.84
2018-07-23T22:40:19.610Z,98506.42
2018-07-23T22:42:32.417Z,98508.23
2018-07-23T22:44:48.494Z,98504.44
2018-07-23T22:47:00.735Z,98502.09
2018-07-23T22:49:13.040Z,98506.48
2018-07-23T22:51:25.314Z,98501.33
2018-07-23T22:53:37.574Z,98499.89
2018-07-23T22:55:49.894Z,98502.03
2018-07-23T22:58:02.186Z,98503.35
2018-07-23T23:00:14.479Z,98502.37
2018-07-23T23:02:26.739Z,98499.24
2018-07-23T23:04:39.015Z,98497.80
2018-07-23T23:06:51.275Z,98499.12
2018-07-23T23:09:06.775Z,98498.63
2018-07-23T23:11:18.995Z,98497.75
2018-07-23T23:13:31.275Z,98497.88
2018-07-23T23:15:43.529Z,98491.77
2018-07-23T23:17:55.734Z,98493.53
2018-07-23T23:20:08.422Z,98495.91
2018-07-23T23:22:20.594Z,98499.86
2018-07-23T23:24:32.818Z,98495.84
2018-07-23T23:26:45.094Z,98490.86
2018-07-23T23:28:57.337Z,98487.19
2018-07-23T23:31:09.594Z,98492.73
2018-07-23T23:33:21.835Z,98488.39
2018-07-23T23:35:34.073Z,98484.30
2018-07-23T23:37:46.353Z,98487.79
2018-07-23T23:39:58.622Z,98491.03
2018-07-23T23:42:10.886Z,98485.68
2018-07-23T23:44:23.103Z,98485.89
2018-07-23T23:46:35.439Z,98483.41
2018-07-23T23:48:47.645Z,98494.20
2018-07-23T23:50:59.890Z,98486.59
2018-07-23T23:53:12.123Z,98481.05
2018-07-23T23:55:24.360Z,98491.36
2018-07-23T23:57:36.588Z,98482.85
2018-07-23T23:59:48.851Z,98485.97
